sensor_id;sensor_type;location;lat;lon;timestamp;temperature;humidity
41344;DHT22;27089;50.022;7.604;2023-11-22T00:02:16;4.20;99.90
41344;DHT22;27089;50.022;7.604;2023-11-22T00:04:43;4.20;99.90
41344;DHT22;27089;50.022;7.604;2023-11-22T00:07:10;4.20;99.90
41344;DHT22;27089;50.022;7.604;2023-11-22T00:09:37;4.20;99.90
41344;DHT22;27089;50.022;7.604;2023-11-22T00:12:06;4.20;99.90
41344;DHT22;27089;50.022;7.604;2023-11-22T00:14:34;4.20;99.90
41344;DHT22;27089;50.022;7.604;2023-11-22T00:17:01;4.20;99.90
41344;DHT22;27089;50.022;7.604;2023-11-22T00:19:29;4.20;99.90
41344;DHT22;27089;50.022;7.604;2023-11-22T00:21:58;4.10;99.90
41344;DHT22;27089;50.022;7.604;2023-11-22T00:24:25;4.10;99.90
41344;DHT22;27089;50.022;7.604;2023-11-22T00:26:52;4.10;99.90
41344;DHT22;27089;50.022;7.604;2023-11-22T00:29:20;4.10;99.90
41344;DHT22;27089;50.022;7.604;2023-11-22T00:31:47;4.10;99.90
41344;DHT22;27089;50.022;7.604;2023-11-22T00:34:14;4.00;99.90
41344;DHT22;27089;50.022;7.604;2023-11-22T00:36:41;4.00;99.90
41344;DHT22;27089;50.022;7.604;2023-11-22T00:39:08;4.00;99.90
41344;DHT22;27089;50.022;7.604;2023-11-22T00:41:38;3.90;99.90
41344;DHT22;27089;50.022;7.604;2023-11-22T00:44:05;3.80;99.90
41344;DHT22;27089;50.022;7.604;2023-11-22T00:46:34;3.80;99.90
41344;DHT22;27089;50.022;7.604;2023-11-22T00:49:02;3.80;99.90
41344;DHT22;27089;50.022;7.604;2023-11-22T00:51:30;3.70;99.90
41344;DHT22;27089;50.022;7.604;2023-11-22T00:53:58;3.70;99.90
41344;DHT22;27089;50.022;7.604;2023-11-22T00:56:25;3.80;99.90
41344;DHT22;27089;50.022;7.604;2023-11-22T00:58:52;3.70;99.90
41344;DHT22;27089;50.022;7.604;2023-11-22T01:01:19;3.70;99.90
41344;DHT22;27089;50.022;7.604;2023-11-22T01:03:47;3.70;99.90
41344;DHT22;27089;50.022;7.604;2023-11-22T01:06:14;3.70;99.90
41344;DHT22;27089;50.022;7.604;2023-11-22T01:08:43;3.60;99.90
41344;DHT22;27089;50.022;7.604;2023-11-22T01:11:10;3.60;99.90
41344;DHT22;27089;50.022;7.604;2023-11-22T01:13:37;3.50;99.90
41344;DHT22;27089;50.022;7.604;2023-11-22T01:16:06;3.50;99.90
41344;DHT22;27089;50.022;7.604;2023-11-22T01:18:33;3.40;99.90
41344;DHT22;27089;50.022;7.604;2023-11-22T01:21:02;3.40;99.90
41344;DHT22;27089;50.022;7.604;2023-11-22T01:23:30;3.30;99.90
41344;DHT22;27089;50.022;7.604;2023-11-22T01:25:57;3.20;99.90
41344;DHT22;27089;50.022;7.604;2023-11-22T01:28:25;3.10;99.90
41344;DHT22;27089;50.022;7.604;2023-11-22T01:30:53;3.10;99.90
41344;DHT22;27089;50.022;7.604;2023-11-22T01:33:21;3.00;99.90
41344;DHT22;27089;50.022;7.604;2023-11-22T01:35:48;2.90;99.90
41344;DHT22;27089;50.022;7.604;2023-11-22T01:38:16;2.90;99.90
41344;DHT22;27089;50.022;7.604;2023-11-22T01:40:44;2.80;99.90
41344;DHT22;27089;50.022;7.604;2023-11-22T01:43:13;2.80;99.90
41344;DHT22;27089;50.022;7.604;2023-11-22T01:45:40;2.70;99.90
41344;DHT22;27089;50.022;7.604;2023-11-22T01:48:08;2.60;99.90
41344;DHT22;27089;50.022;7.604;2023-11-22T01:50:37;2.60;99.90
41344;DHT22;27089;50.022;7.604;2023-11-22T01:53:06;2.60;99.90
41344;DHT22;27089;50.022;7.604;2023-11-22T01:55:35;2.60;99.90
41344;DHT22;27089;50.022;7.604;2023-11-22T01:58:03;2.70;99.90
41344;DHT22;27089;50.022;7.604;2023-11-22T02:00:41;2.70;99.90
41344;DHT22;27089;50.022;7.604;2023-11-22T02:03:09;2.80;99.90
41344;DHT22;27089;50.022;7.604;2023-11-22T02:05:39;2.80;99.90
41344;DHT22;27089;50.022;7.604;2023-11-22T02:08:08;2.80;99.90
41344;DHT22;27089;50.022;7.604;2023-11-22T02:10:37;2.80;99.90
41344;DHT22;27089;50.022;7.604;2023-11-22T02:13:05;2.80;99.90
41344;DHT22;27089;50.022;7.604;2023-11-22T02:15:33;2.80;99.90
41344;DHT22;27089;50.022;7.604;2023-11-22T02:18:00;2.70;99.90
41344;DHT22;27089;50.022;7.604;2023-11-22T02:20:28;2.60;99.90
41344;DHT22;27089;50.022;7.604;2023-11-22T02:22:55;2.60;99.90
41344;DHT22;27089;50.022;7.604;2023-11-22T02:25:24;2.50;99.90
41344;DHT22;27089;50.022;7.604;2023-11-22T02:27:50;2.40;99.90
41344;DHT22;27089;50.022;7.604;2023-11-22T02:30:18;2.40;99.90
41344;DHT22;27089;50.022;7.604;2023-11-22T02:32:45;2.30;99.90
41344;DHT22;27089;50.022;7.604;2023-11-22T02:35:12;2.30;99.90
41344;DHT22;27089;50.022;7.604;2023-11-22T02:37:41;2.20;99.90
41344;DHT22;27089;50.022;7.604;2023-11-22T02:40:17;2.20;99.90
41344;DHT22;27089;50.022;7.604;2023-11-22T02:42:46;2.30;99.90
41344;DHT22;27089;50.022;7.604;2023-11-22T02:45:14;2.30;99.90
41344;DHT22;27089;50.022;7.604;2023-11-22T02:47:41;2.30;99.90
41344;DHT22;27089;50.022;7.604;2023-11-22T02:50:11;2.40;99.90
41344;DHT22;27089;50.022;7.604;2023-11-22T02:52:39;2.40;99.90
41344;DHT22;27089;50.022;7.604;2023-11-22T02:55:07;2.50;99.90
41344;DHT22;27089;50.022;7.604;2023-11-22T02:57:35;2.50;99.90
41344;DHT22;27089;50.022;7.604;2023-11-22T03:00:04;2.60;99.90
41344;DHT22;27089;50.022;7.604;2023-11-22T03:02:32;2.70;99.90
41344;DHT22;27089;50.022;7.604;2023-11-22T03:04:59;2.80;99.90
41344;DHT22;27089;50.022;7.604;2023-11-22T03:07:26;2.90;99.90
41344;DHT22;27089;50.022;7.604;2023-11-22T03:09:53;2.90;99.90
41344;DHT22;27089;50.022;7.604;2023-11-22T03:12:21;2.90;99.90
41344;DHT22;27089;50.022;7.604;2023-11-22T03:14:48;3.00;99.90
41344;DHT22;27089;50.022;7.604;2023-11-22T03:17:17;3.00;99.90
41344;DHT22;27089;50.022;7.604;2023-11-22T03:19:44;3.00;99.90
41344;DHT22;27089;50.022;7.604;2023-11-22T03:22:12;3.00;99.90
41344;DHT22;27089;50.022;7.604;2023-11-22T03:24:39;3.10;99.90
41344;DHT22;27089;50.022;7.604;2023-11-22T03:27:06;3.10;99.90
41344;DHT22;27089;50.022;7.604;2023-11-22T03:29:32;3.20;99.90
41344;DHT22;27089;50.022;7.604;2023-11-22T03:32:00;3.20;99.90
41344;DHT22;27089;50.022;7.604;2023-11-22T03:34:29;3.30;99.90
41344;DHT22;27089;50.022;7.604;2023-11-22T03:36:56;3.30;99.90
41344;DHT22;27089;50.022;7.604;2023-11-22T03:39:23;3.30;99.90
41344;DHT22;27089;50.022;7.604;2023-11-22T03:41:50;3.30;99.90
41344;DHT22;27089;50.022;7.604;2023-11-22T03:44:17;3.40;99.90
41344;DHT22;27089;50.022;7.604;2023-11-22T03:46:44;3.30;99.90
41344;DHT22;27089;50.022;7.604;2023-11-22T03:49:11;3.30;99.90
41344;DHT22;27089;50.022;7.604;2023-11-22T03:51:42;3.30;99.90
41344;DHT22;27089;50.022;7.604;2023-11-22T03:54:09;3.20;99.90
41344;DHT22;27089;50.022;7.604;2023-11-22T03:56:38;3.20;99.90
41344;DHT22;27089;50.022;7.604;2023-11-22T03:59:05;3.20;99.90
41344;DHT22;27089;50.022;7.604;2023-11-22T04:01:32;3.20;99.90
41344;DHT22;27089;50.022;7.604;2023-11-22T04:03:59;3.20;99.90
41344;DHT22;27089;50.022;7.604;2023-11-22T04:06:26;3.20;99.90
41344;DHT22;27089;50.022;7.604;2023-11-22T04:08:54;3.20;99.90
41344;DHT22;27089;50.022;7.604;2023-11-22T04:11:21;3.20;99.90
41344;DHT22;27089;50.022;7.604;2023-11-22T04:13:48;3.20;99.90
41344;DHT22;27089;50.022;7.604;2023-11-22T04:16:15;3.20;99.90
41344;DHT22;27089;50.022;7.604;2023-11-22T04:18:43;3.30;99.90
41344;DHT22;27089;50.022;7.604;2023-11-22T04:21:10;3.30;99.90
41344;DHT22;27089;50.022;7.604;2023-11-22T04:23:37;3.30;99.90
41344;DHT22;27089;50.022;7.604;2023-11-22T04:26:05;3.20;99.90
41344;DHT22;27089;50.022;7.604;2023-11-22T04:28:33;3.20;99.90
41344;DHT22;27089;50.022;7.604;2023-11-22T04:31:00;3.30;99.90
41344;DHT22;27089;50.022;7.604;2023-11-22T04:33:27;3.30;99.90
41344;DHT22;27089;50.022;7.604;2023-11-22T04:35:54;3.30;99.90
41344;DHT22;27089;50.022;7.604;2023-11-22T04:38:22;3.30;99.90
41344;DHT22;27089;50.022;7.604;2023-11-22T04:40:49;3.30;99.90
41344;DHT22;27089;50.022;7.604;2023-11-22T04:43:17;3.20;99.90
41344;DHT22;27089;50.022;7.604;2023-11-22T04:45:44;3.20;99.90
41344;DHT22;27089;50.022;7.604;2023-11-22T04:48:11;3.10;99.90
41344;DHT22;27089;50.022;7.604;2023-11-22T04:50:40;3.10;99.90
41344;DHT22;27089;50.022;7.604;2023-11-22T04:53:08;3.00;99.90
41344;DHT22;27089;50.022;7.604;2023-11-22T04:55:35;3.00;99.90
41344;DHT22;27089;50.022;7.604;2023-11-22T04:58:02;3.00;99.90
41344;DHT22;27089;50.022;7.604;2023-11-22T05:00:32;3.00;99.90
41344;DHT22;27089;50.022;7.604;2023-11-22T05:02:59;3.00;99.90
41344;DHT22;27089;50.022;7.604;2023-11-22T05:05:26;3.00;99.90
41344;DHT22;27089;50.022;7.604;2023-11-22T05:07:53;3.00;99.90
41344;DHT22;27089;50.022;7.604;2023-11-22T05:10:20;3.10;99.90
41344;DHT22;27089;50.022;7.604;2023-11-22T05:12:47;3.10;99.90
41344;DHT22;27089;50.022;7.604;2023-11-22T05:15:14;3.10;99.90
41344;DHT22;27089;50.022;7.604;2023-11-22T05:17:42;3.10;99.90
41344;DHT22;27089;50.022;7.604;2023-11-22T05:20:09;3.10;99.90
41344;DHT22;27089;50.022;7.604;2023-11-22T05:22:36;3.00;99.90
41344;DHT22;27089;50.022;7.604;2023-11-22T05:25:04;2.90;99.90
41344;DHT22;27089;50.022;7.604;2023-11-22T05:27:32;2.90;99.90
41344;DHT22;27089;50.022;7.604;2023-11-22T05:30:01;2.90;99.90
41344;DHT22;27089;50.022;7.604;2023-11-22T05:32:30;2.90;99.90
41344;DHT22;27089;50.022;7.604;2023-11-22T05:34:58;2.90;99.90
41344;DHT22;27089;50.022;7.604;2023-11-22T05:37:25;2.80;99.90
41344;DHT22;27089;50.022;7.604;2023-11-22T05:39:52;2.80;99.90
41344;DHT22;27089;50.022;7.604;2023-11-22T05:42:19;2.80;99.90
41344;DHT22;27089;50.022;7.604;2023-11-22T05:44:46;2.70;99.90
41344;DHT22;27089;50.022;7.604;2023-11-22T05:47:15;2.60;99.90
41344;DHT22;27089;50.022;7.604;2023-11-22T05:49:44;2.40;99.90
41344;DHT22;27089;50.022;7.604;2023-11-22T05:52:12;2.30;99.90
41344;DHT22;27089;50.022;7.604;2023-11-22T05:54:39;2.30;99.90
41344;DHT22;27089;50.022;7.604;2023-11-22T05:57:06;2.20;99.90
41344;DHT22;27089;50.022;7.604;2023-11-22T05:59:36;2.10;99.90
41344;DHT22;27089;50.022;7.604;2023-11-22T06:02:03;2.10;99.90
41344;DHT22;27089;50.022;7.604;2023-11-22T06:04:30;2.00;99.90
41344;DHT22;27089;50.022;7.604;2023-11-22T06:06:57;2.00;99.90
41344;DHT22;27089;50.022;7.604;2023-11-22T06:09:25;2.00;99.90
41344;DHT22;27089;50.022;7.604;2023-11-22T06:11:52;2.00;99.90
41344;DHT22;27089;50.022;7.604;2023-11-22T06:14:20;1.90;99.90
41344;DHT22;27089;50.022;7.604;2023-11-22T06:16:47;1.90;99.90
41344;DHT22;27089;50.022;7.604;2023-11-22T06:19:14;1.80;99.90
41344;DHT22;27089;50.022;7.604;2023-11-22T06:21:41;1.80;99.90
41344;DHT22;27089;50.022;7.604;2023-11-22T06:24:08;1.70;99.90
41344;DHT22;27089;50.022;7.604;2023-11-22T06:26:42;1.70;99.90
41344;DHT22;27089;50.022;7.604;2023-11-22T06:29:11;1.70;99.90
41344;DHT22;27089;50.022;7.604;2023-11-22T06:31:38;1.60;99.90
41344;DHT22;27089;50.022;7.604;2023-11-22T06:34:06;1.50;99.90
41344;DHT22;27089;50.022;7.604;2023-11-22T06:36:33;1.50;99.90
41344;DHT22;27089;50.022;7.604;2023-11-22T06:38:59;1.30;99.90
41344;DHT22;27089;50.022;7.604;2023-11-22T06:41:26;1.30;99.90
41344;DHT22;27089;50.022;7.604;2023-11-22T06:43:55;1.20;99.90
41344;DHT22;27089;50.022;7.604;2023-11-22T06:46:23;1.20;99.90
41344;DHT22;27089;50.022;7.604;2023-11-22T06:48:50;1.10;99.90
41344;DHT22;27089;50.022;7.604;2023-11-22T06:51:17;1.10;99.90
41344;DHT22;27089;50.022;7.604;2023-11-22T06:53:44;1.10;99.90
41344;DHT22;27089;50.022;7.604;2023-11-22T06:56:11;1.00;99.90
41344;DHT22;27089;50.022;7.604;2023-11-22T06:58:38;1.00;99.90
41344;DHT22;27089;50.022;7.604;2023-11-22T07:01:07;1.00;99.90
41344;DHT22;27089;50.022;7.604;2023-11-22T07:03:36;0.90;99.90
41344;DHT22;27089;50.022;7.604;2023-11-22T07:06:04;0.90;99.90
41344;DHT22;27089;50.022;7.604;2023-11-22T07:08:31;1.00;99.90
41344;DHT22;27089;50.022;7.604;2023-11-22T07:10:58;1.10;99.90
41344;DHT22;27089;50.022;7.604;2023-11-22T07:13:25;1.20;99.90
41344;DHT22;27089;50.022;7.604;2023-11-22T07:15:52;1.20;99.90
41344;DHT22;27089;50.022;7.604;2023-11-22T07:18:22;1.20;99.90
41344;DHT22;27089;50.022;7.604;2023-11-22T07:20:50;1.20;99.90
41344;DHT22;27089;50.022;7.604;2023-11-22T07:23:19;1.20;99.90
41344;DHT22;27089;50.022;7.604;2023-11-22T07:25:48;1.30;99.90
41344;DHT22;27089;50.022;7.604;2023-11-22T07:28:15;1.20;99.90
41344;DHT22;27089;50.022;7.604;2023-11-22T07:30:42;1.20;99.90
41344;DHT22;27089;50.022;7.604;2023-11-22T07:33:09;1.20;99.90
41344;DHT22;27089;50.022;7.604;2023-11-22T07:35:39;1.20;99.90
41344;DHT22;27089;50.022;7.604;2023-11-22T07:38:06;1.20;99.90
41344;DHT22;27089;50.022;7.604;2023-11-22T07:40:34;1.20;99.90
41344;DHT22;27089;50.022;7.604;2023-11-22T07:43:01;1.20;99.90
41344;DHT22;27089;50.022;7.604;2023-11-22T07:45:30;1.30;99.90
41344;DHT22;27089;50.022;7.604;2023-11-22T07:47:57;1.30;99.90
41344;DHT22;27089;50.022;7.604;2023-11-22T07:50:25;1.40;99.90
41344;DHT22;27089;50.022;7.604;2023-11-22T07:52:53;1.50;99.90
41344;DHT22;27089;50.022;7.604;2023-11-22T07:55:20;1.50;99.90
41344;DHT22;27089;50.022;7.604;2023-11-22T07:57:48;1.50;99.90
41344;DHT22;27089;50.022;7.604;2023-11-22T08:00:17;1.60;99.90
41344;DHT22;27089;50.022;7.604;2023-11-22T08:02:45;1.60;99.90
41344;DHT22;27089;50.022;7.604;2023-11-22T08:05:12;1.60;99.90
41344;DHT22;27089;50.022;7.604;2023-11-22T08:07:41;1.60;99.90
41344;DHT22;27089;50.022;7.604;2023-11-22T08:10:11;1.60;99.90
41344;DHT22;27089;50.022;7.604;2023-11-22T08:12:45;1.60;99.90
41344;DHT22;27089;50.022;7.604;2023-11-22T08:15:13;1.70;99.90
41344;DHT22;27089;50.022;7.604;2023-11-22T08:17:41;1.70;99.90
41344;DHT22;27089;50.022;7.604;2023-11-22T08:20:09;1.80;99.90
41344;DHT22;27089;50.022;7.604;2023-11-22T08:22:39;1.80;99.90
41344;DHT22;27089;50.022;7.604;2023-11-22T08:25:07;1.80;99.90
41344;DHT22;27089;50.022;7.604;2023-11-22T08:27:39;1.90;99.90
41344;DHT22;27089;50.022;7.604;2023-11-22T08:30:07;1.90;99.90
41344;DHT22;27089;50.022;7.604;2023-11-22T08:32:39;2.00;99.90
41344;DHT22;27089;50.022;7.604;2023-11-22T08:35:08;2.00;99.90
41344;DHT22;27089;50.022;7.604;2023-11-22T08:37:35;2.10;99.90
41344;DHT22;27089;50.022;7.604;2023-11-22T08:40:05;2.10;99.90
41344;DHT22;27089;50.022;7.604;2023-11-22T08:42:33;2.00;99.90
41344;DHT22;27089;50.022;7.604;2023-11-22T08:45:01;2.10;99.90
41344;DHT22;27089;50.022;7.604;2023-11-22T08:47:29;2.00;99.90
41344;DHT22;27089;50.022;7.604;2023-11-22T08:49:56;2.00;99.90
41344;DHT22;27089;50.022;7.604;2023-11-22T08:52:29;2.10;99.90
41344;DHT22;27089;50.022;7.604;2023-11-22T08:54:56;2.10;99.90
41344;DHT22;27089;50.022;7.604;2023-11-22T08:57:25;2.00;99.90
41344;DHT22;27089;50.022;7.604;2023-11-22T08:59:53;2.10;99.90
41344;DHT22;27089;50.022;7.604;2023-11-22T09:02:21;2.10;99.90
41344;DHT22;27089;50.022;7.604;2023-11-22T09:04:49;2.00;99.90
41344;DHT22;27089;50.022;7.604;2023-11-22T09:07:16;1.90;99.90
41344;DHT22;27089;50.022;7.604;2023-11-22T09:09:43;1.90;99.90
41344;DHT22;27089;50.022;7.604;2023-11-22T09:12:10;2.00;99.90
41344;DHT22;27089;50.022;7.604;2023-11-22T09:14:39;1.90;99.90
41344;DHT22;27089;50.022;7.604;2023-11-22T09:17:07;1.90;99.90
41344;DHT22;27089;50.022;7.604;2023-11-22T09:19:36;1.90;99.90
41344;DHT22;27089;50.022;7.604;2023-11-22T09:22:04;1.90;99.90
41344;DHT22;27089;50.022;7.604;2023-11-22T09:24:32;1.80;99.90
41344;DHT22;27089;50.022;7.604;2023-11-22T09:27:02;1.90;99.90
41344;DHT22;27089;50.022;7.604;2023-11-22T09:29:31;1.80;99.90
41344;DHT22;27089;50.022;7.604;2023-11-22T09:31:58;1.90;99.90
41344;DHT22;27089;50.022;7.604;2023-11-22T09:34:26;2.00;99.90
41344;DHT22;27089;50.022;7.604;2023-11-22T09:36:54;2.00;99.90
41344;DHT22;27089;50.022;7.604;2023-11-22T09:39:21;1.90;99.90
41344;DHT22;27089;50.022;7.604;2023-11-22T09:41:51;1.90;99.90
41344;DHT22;27089;50.022;7.604;2023-11-22T09:44:18;2.00;99.90
41344;DHT22;27089;50.022;7.604;2023-11-22T09:46:48;1.90;99.90
41344;DHT22;27089;50.022;7.604;2023-11-22T09:49:20;1.90;99.90
41344;DHT22;27089;50.022;7.604;2023-11-22T09:51:49;1.90;99.90
41344;DHT22;27089;50.022;7.604;2023-11-22T09:54:20;1.90;99.90
41344;DHT22;27089;50.022;7.604;2023-11-22T09:56:51;2.00;99.90
41344;DHT22;27089;50.022;7.604;2023-11-22T09:59:18;2.10;99.90
41344;DHT22;27089;50.022;7.604;2023-11-22T10:01:49;2.10;99.90
41344;DHT22;27089;50.022;7.604;2023-11-22T10:04:17;2.20;99.90
41344;DHT22;27089;50.022;7.604;2023-11-22T10:06:44;2.40;99.90
41344;DHT22;27089;50.022;7.604;2023-11-22T10:09:12;2.50;99.90
41344;DHT22;27089;50.022;7.604;2023-11-22T10:11:41;2.60;99.90
41344;DHT22;27089;50.022;7.604;2023-11-22T10:14:09;2.60;99.90
41344;DHT22;27089;50.022;7.604;2023-11-22T10:16:36;2.40;99.90
41344;DHT22;27089;50.022;7.604;2023-11-22T10:19:04;2.40;99.90
41344;DHT22;27089;50.022;7.604;2023-11-22T10:21:32;2.20;99.90
41344;DHT22;27089;50.022;7.604;2023-11-22T10:24:01;2.10;99.90
41344;DHT22;27089;50.022;7.604;2023-11-22T10:26:28;2.30;99.90
41344;DHT22;27089;50.022;7.604;2023-11-22T10:28:57;2.30;99.90
41344;DHT22;27089;50.022;7.604;2023-11-22T10:31:25;2.40;99.90
41344;DHT22;27089;50.022;7.604;2023-11-22T10:33:53;2.50;99.90
41344;DHT22;27089;50.022;7.604;2023-11-22T10:36:22;2.60;99.90
41344;DHT22;27089;50.022;7.604;2023-11-22T10:38:49;2.70;99.90
41344;DHT22;27089;50.022;7.604;2023-11-22T10:41:17;2.70;99.90
41344;DHT22;27089;50.022;7.604;2023-11-22T10:43:46;3.00;99.90
41344;DHT22;27089;50.022;7.604;2023-11-22T10:46:15;3.30;99.90
41344;DHT22;27089;50.022;7.604;2023-11-22T10:48:42;3.40;99.90
41344;DHT22;27089;50.022;7.604;2023-11-22T10:51:13;3.40;99.90
41344;DHT22;27089;50.022;7.604;2023-11-22T10:53:45;3.40;99.90
41344;DHT22;27089;50.022;7.604;2023-11-22T10:56:16;3.50;99.90
41344;DHT22;27089;50.022;7.604;2023-11-22T10:58:47;3.40;99.90
41344;DHT22;27089;50.022;7.604;2023-11-22T11:01:17;3.30;99.90
41344;DHT22;27089;50.022;7.604;2023-11-22T11:03:49;3.40;99.90
41344;DHT22;27089;50.022;7.604;2023-11-22T11:06:20;3.30;99.90
41344;DHT22;27089;50.022;7.604;2023-11-22T11:08:53;3.30;99.90
41344;DHT22;27089;50.022;7.604;2023-11-22T11:11:23;3.30;99.90
41344;DHT22;27089;50.022;7.604;2023-11-22T11:13:51;3.10;99.90
41344;DHT22;27089;50.022;7.604;2023-11-22T11:16:20;2.90;99.90
41344;DHT22;27089;50.022;7.604;2023-11-22T11:18:48;2.90;99.90
41344;DHT22;27089;50.022;7.604;2023-11-22T11:21:16;3.00;99.90
41344;DHT22;27089;50.022;7.604;2023-11-22T11:23:44;3.00;99.90
41344;DHT22;27089;50.022;7.604;2023-11-22T11:26:15;3.00;99.90
41344;DHT22;27089;50.022;7.604;2023-11-22T11:28:44;2.90;99.90
41344;DHT22;27089;50.022;7.604;2023-11-22T11:31:13;2.90;99.90
41344;DHT22;27089;50.022;7.604;2023-11-22T11:33:55;3.00;99.90
41344;DHT22;27089;50.022;7.604;2023-11-22T11:36:25;3.10;99.90
41344;DHT22;27089;50.022;7.604;2023-11-22T11:38:53;3.30;99.90
41344;DHT22;27089;50.022;7.604;2023-11-22T11:41:25;3.40;99.90
41344;DHT22;27089;50.022;7.604;2023-11-22T11:43:54;3.20;99.90
41344;DHT22;27089;50.022;7.604;2023-11-22T11:46:22;3.20;99.90
41344;DHT22;27089;50.022;7.604;2023-11-22T11:48:51;3.20;99.90
41344;DHT22;27089;50.022;7.604;2023-11-22T11:51:21;3.30;99.90
41344;DHT22;27089;50.022;7.604;2023-11-22T11:53:49;3.30;99.90
41344;DHT22;27089;50.022;7.604;2023-11-22T11:56:17;3.30;99.90
41344;DHT22;27089;50.022;7.604;2023-11-22T11:58:45;3.30;99.90
41344;DHT22;27089;50.022;7.604;2023-11-22T12:01:14;3.40;99.90
41344;DHT22;27089;50.022;7.604;2023-11-22T12:03:42;3.40;99.90
41344;DHT22;27089;50.022;7.604;2023-11-22T12:06:09;3.40;99.90
41344;DHT22;27089;50.022;7.604;2023-11-22T12:08:37;3.30;99.90
41344;DHT22;27089;50.022;7.604;2023-11-22T12:11:05;3.40;99.90
41344;DHT22;27089;50.022;7.604;2023-11-22T12:13:34;3.50;99.90
41344;DHT22;27089;50.022;7.604;2023-11-22T12:16:05;3.50;99.90
41344;DHT22;27089;50.022;7.604;2023-11-22T12:18:40;3.50;99.90
41344;DHT22;27089;50.022;7.604;2023-11-22T12:21:07;3.50;99.90
41344;DHT22;27089;50.022;7.604;2023-11-22T12:23:38;3.50;99.90
41344;DHT22;27089;50.022;7.604;2023-11-22T12:26:09;3.40;99.90
41344;DHT22;27089;50.022;7.604;2023-11-22T12:28:39;3.50;99.90
41344;DHT22;27089;50.022;7.604;2023-11-22T12:31:07;3.60;99.90
41344;DHT22;27089;50.022;7.604;2023-11-22T12:33:35;3.70;99.90
41344;DHT22;27089;50.022;7.604;2023-11-22T12:36:03;3.60;99.90
41344;DHT22;27089;50.022;7.604;2023-11-22T12:38:30;3.60;99.90
41344;DHT22;27089;50.022;7.604;2023-11-22T12:40:59;3.40;99.90
41344;DHT22;27089;50.022;7.604;2023-11-22T12:43:28;3.40;99.90
41344;DHT22;27089;50.022;7.604;2023-11-22T12:45:59;3.50;99.90
41344;DHT22;27089;50.022;7.604;2023-11-22T12:48:26;3.60;99.90
41344;DHT22;27089;50.022;7.604;2023-11-22T12:50:55;3.80;99.90
41344;DHT22;27089;50.022;7.604;2023-11-22T12:53:23;3.90;99.90
41344;DHT22;27089;50.022;7.604;2023-11-22T12:55:53;3.90;99.90
41344;DHT22;27089;50.022;7.604;2023-11-22T12:58:23;3.80;99.90
41344;DHT22;27089;50.022;7.604;2023-11-22T13:00:51;3.60;99.90
41344;DHT22;27089;50.022;7.604;2023-11-22T13:03:24;3.50;99.90
41344;DHT22;27089;50.022;7.604;2023-11-22T13:05:51;3.40;99.90
41344;DHT22;27089;50.022;7.604;2023-11-22T13:08:19;3.40;99.90
41344;DHT22;27089;50.022;7.604;2023-11-22T13:10:48;3.50;99.90
41344;DHT22;27089;50.022;7.604;2023-11-22T13:13:20;3.40;99.90
41344;DHT22;27089;50.022;7.604;2023-11-22T13:15:47;3.50;99.90
41344;DHT22;27089;50.022;7.604;2023-11-22T13:18:14;3.60;99.90
41344;DHT22;27089;50.022;7.604;2023-11-22T13:20:42;3.60;99.90
41344;DHT22;27089;50.022;7.604;2023-11-22T13:23:09;3.70;99.90
41344;DHT22;27089;50.022;7.604;2023-11-22T13:25:37;3.70;99.90
41344;DHT22;27089;50.022;7.604;2023-11-22T13:28:04;3.40;99.90
41344;DHT22;27089;50.022;7.604;2023-11-22T13:30:33;3.50;99.90
41344;DHT22;27089;50.022;7.604;2023-11-22T13:33:00;3.50;99.90
41344;DHT22;27089;50.022;7.604;2023-11-22T13:35:28;3.50;99.90
41344;DHT22;27089;50.022;7.604;2023-11-22T13:37:57;3.50;99.90
41344;DHT22;27089;50.022;7.604;2023-11-22T13:40:25;3.50;99.90
41344;DHT22;27089;50.022;7.604;2023-11-22T13:42:55;3.50;99.90
41344;DHT22;27089;50.022;7.604;2023-11-22T13:45:23;3.50;99.90
41344;DHT22;27089;50.022;7.604;2023-11-22T13:47:52;3.50;99.90
41344;DHT22;27089;50.022;7.604;2023-11-22T13:50:20;3.50;99.90
41344;DHT22;27089;50.022;7.604;2023-11-22T13:52:47;3.40;99.90
41344;DHT22;27089;50.022;7.604;2023-11-22T13:55:14;3.40;99.90
41344;DHT22;27089;50.022;7.604;2023-11-22T13:57:43;3.50;99.90
41344;DHT22;27089;50.022;7.604;2023-11-22T14:00:10;3.50;99.90
41344;DHT22;27089;50.022;7.604;2023-11-22T14:02:40;3.60;99.90
41344;DHT22;27089;50.022;7.604;2023-11-22T14:05:09;3.60;99.90
41344;DHT22;27089;50.022;7.604;2023-11-22T14:07:38;3.60;99.90
41344;DHT22;27089;50.022;7.604;2023-11-22T14:10:06;3.70;99.90
41344;DHT22;27089;50.022;7.604;2023-11-22T14:12:34;3.70;99.90
41344;DHT22;27089;50.022;7.604;2023-11-22T14:15:01;3.70;99.90
41344;DHT22;27089;50.022;7.604;2023-11-22T14:17:30;3.70;99.90
41344;DHT22;27089;50.022;7.604;2023-11-22T14:19:57;3.70;99.90
41344;DHT22;27089;50.022;7.604;2023-11-22T14:22:25;3.70;99.90
41344;DHT22;27089;50.022;7.604;2023-11-22T14:24:53;3.70;99.90
41344;DHT22;27089;50.022;7.604;2023-11-22T14:27:20;3.70;99.90
41344;DHT22;27089;50.022;7.604;2023-11-22T14:29:48;3.80;99.90
41344;DHT22;27089;50.022;7.604;2023-11-22T14:32:16;3.90;99.90
41344;DHT22;27089;50.022;7.604;2023-11-22T14:34:43;3.90;99.90
41344;DHT22;27089;50.022;7.604;2023-11-22T14:37:10;3.90;99.90
41344;DHT22;27089;50.022;7.604;2023-11-22T14:39:39;4.00;99.90
41344;DHT22;27089;50.022;7.604;2023-11-22T14:42:06;4.00;99.90
41344;DHT22;27089;50.022;7.604;2023-11-22T14:44:33;4.00;99.90
41344;DHT22;27089;50.022;7.604;2023-11-22T14:47:01;4.10;99.90
41344;DHT22;27089;50.022;7.604;2023-11-22T14:49:32;4.20;99.90
41344;DHT22;27089;50.022;7.604;2023-11-22T14:51:59;4.20;99.90
41344;DHT22;27089;50.022;7.604;2023-11-22T14:54:26;4.20;99.90
41344;DHT22;27089;50.022;7.604;2023-11-22T14:56:55;4.20;99.90
41344;DHT22;27089;50.022;7.604;2023-11-22T14:59:27;4.10;99.90
41344;DHT22;27089;50.022;7.604;2023-11-22T15:01:56;4.00;99.90
41344;DHT22;27089;50.022;7.604;2023-11-22T15:04:23;3.90;99.90
41344;DHT22;27089;50.022;7.604;2023-11-22T15:06:51;3.80;99.90
41344;DHT22;27089;50.022;7.604;2023-11-22T15:09:18;3.70;99.90
41344;DHT22;27089;50.022;7.604;2023-11-22T15:11:47;3.60;99.90
41344;DHT22;27089;50.022;7.604;2023-11-22T15:14:15;3.60;99.90
41344;DHT22;27089;50.022;7.604;2023-11-22T15:16:42;3.50;99.90
41344;DHT22;27089;50.022;7.604;2023-11-22T15:19:09;3.50;99.90
41344;DHT22;27089;50.022;7.604;2023-11-22T15:21:36;3.40;99.90
41344;DHT22;27089;50.022;7.604;2023-11-22T15:24:03;3.30;99.90
41344;DHT22;27089;50.022;7.604;2023-11-22T15:26:31;3.30;99.90
41344;DHT22;27089;50.022;7.604;2023-11-22T15:28:58;3.20;99.90
41344;DHT22;27089;50.022;7.604;2023-11-22T15:31:27;3.20;99.90
41344;DHT22;27089;50.022;7.604;2023-11-22T15:33:54;3.10;99.90
41344;DHT22;27089;50.022;7.604;2023-11-22T15:36:21;3.10;99.90
41344;DHT22;27089;50.022;7.604;2023-11-22T15:38:48;3.00;99.90
41344;DHT22;27089;50.022;7.604;2023-11-22T15:41:15;3.00;99.90
41344;DHT22;27089;50.022;7.604;2023-11-22T15:43:42;3.00;99.90
41344;DHT22;27089;50.022;7.604;2023-11-22T15:46:10;2.90;99.90
41344;DHT22;27089;50.022;7.604;2023-11-22T15:48:39;2.90;99.90
41344;DHT22;27089;50.022;7.604;2023-11-22T15:51:06;2.80;99.90